Miami, Florida
Traffic Map
Current Weather Conditions
Miami, Florida
Broken Clouds Moderate Rain
Broken Clouds
79°
Feels Like: 82°
Wind Chill: 79° Ceiling: 2300
Heat Index: 82° Visibility: 2mi
Dew Point: 72° Wind: 13mph
Humidity: 79% Direction: 60° (ENE)
Pressure: 30.01in Gusts: 20mph
Raw Report DataKMIA 240427Z 06011G17KT 2SM RA BR FEW017 BKN023CB BKN110 26/22 A3001 RMK AO2 RAB25 CB NE-SE MOV NW P0000 T02610222
Traffic Incident Summary
Active as of:
Severity:
Category:
InformationThere was an issue retrieving the traffic information for this location. Please try a different location or try again shortly.
Advertisements
Track Severe Weather on mobile